sensor_id;sensor_type;location;lat;lon;timestamp;P1;durP1;ratioP1;P2;durP2;ratioP2
20480;SDS011;10399;50.754;3.366;2023-03-22T00:02:25;16.42;;;8.43;;
20480;SDS011;10399;50.754;3.366;2023-03-22T00:04:52;14.30;;;8.35;;
20480;SDS011;10399;50.754;3.366;2023-03-22T00:07:19;16.27;;;9.07;;
20480;SDS011;10399;50.754;3.366;2023-03-22T00:09:46;11.23;;;8.43;;
20480;SDS011;10399;50.754;3.366;2023-03-22T00:12:15;13.10;;;8.80;;
20480;SDS011;10399;50.754;3.366;2023-03-22T00:14:42;16.45;;;9.52;;
20480;SDS011;10399;50.754;3.366;2023-03-22T00:17:09;13.20;;;8.40;;
20480;SDS011;10399;50.754;3.366;2023-03-22T00:19:36;15.90;;;8.40;;
20480;SDS011;10399;50.754;3.366;2023-03-22T00:22:03;13.52;;;8.90;;
20480;SDS011;10399;50.754;3.366;2023-03-22T00:24:31;16.23;;;8.43;;
20480;SDS011;10399;50.754;3.366;2023-03-22T00:26:58;12.68;;;7.72;;
20480;SDS011;10399;50.754;3.366;2023-03-22T00:29:26;18.58;;;9.10;;
20480;SDS011;10399;50.754;3.366;2023-03-22T00:31:53;18.55;;;7.95;;
20480;SDS011;10399;50.754;3.366;2023-03-22T00:34:21;14.18;;;8.10;;
20480;SDS011;10399;50.754;3.366;2023-03-22T00:36:48;15.30;;;8.70;;
20480;SDS011;10399;50.754;3.366;2023-03-22T00:39:17;14.30;;;7.95;;
20480;SDS011;10399;50.754;3.366;2023-03-22T00:41:43;16.13;;;8.52;;
20480;SDS011;10399;50.754;3.366;2023-03-22T00:44:11;15.52;;;8.15;;
20480;SDS011;10399;50.754;3.366;2023-03-22T00:46:38;17.25;;;7.80;;
20480;SDS011;10399;50.754;3.366;2023-03-22T00:49:04;15.18;;;8.10;;
20480;SDS011;10399;50.754;3.366;2023-03-22T00:51:31;15.75;;;8.43;;
20480;SDS011;10399;50.754;3.366;2023-03-22T00:53:58;16.35;;;8.30;;
20480;SDS011;10399;50.754;3.366;2023-03-22T00:56:25;17.58;;;8.23;;
20480;SDS011;10399;50.754;3.366;2023-03-22T00:58:54;13.50;;;7.95;;
20480;SDS011;10399;50.754;3.366;2023-03-22T01:01:21;11.18;;;7.47;;
20480;SDS011;10399;50.754;3.366;2023-03-22T01:03:48;12.25;;;6.97;;
20480;SDS011;10399;50.754;3.366;2023-03-22T01:06:16;13.40;;;7.07;;
20480;SDS011;10399;50.754;3.366;2023-03-22T01:08:43;14.07;;;7.47;;
20480;SDS011;10399;50.754;3.366;2023-03-22T01:11:11;13.13;;;6.88;;
20480;SDS011;10399;50.754;3.366;2023-03-22T01:13:38;17.02;;;6.90;;
20480;SDS011;10399;50.754;3.366;2023-03-22T01:16:07;13.90;;;6.65;;
20480;SDS011;10399;50.754;3.366;2023-03-22T01:18:35;20.15;;;7.80;;
20480;SDS011;10399;50.754;3.366;2023-03-22T01:21:02;16.35;;;6.22;;
20480;SDS011;10399;50.754;3.366;2023-03-22T01:23:33;16.42;;;6.35;;
20480;SDS011;10399;50.754;3.366;2023-03-22T01:26:00;18.38;;;6.68;;
20480;SDS011;10399;50.754;3.366;2023-03-22T01:28:27;12.38;;;6.15;;
20480;SDS011;10399;50.754;3.366;2023-03-22T01:30:55;14.00;;;5.88;;
20480;SDS011;10399;50.754;3.366;2023-03-22T01:33:25;15.55;;;6.03;;
20480;SDS011;10399;50.754;3.366;2023-03-22T01:35:52;10.50;;;5.80;;
20480;SDS011;10399;50.754;3.366;2023-03-22T01:38:19;13.70;;;5.57;;
20480;SDS011;10399;50.754;3.366;2023-03-22T01:40:49;15.07;;;6.43;;
20480;SDS011;10399;50.754;3.366;2023-03-22T01:43:17;13.07;;;5.72;;
20480;SDS011;10399;50.754;3.366;2023-03-22T01:45:48;14.70;;;5.53;;
20480;SDS011;10399;50.754;3.366;2023-03-22T01:48:21;12.52;;;5.85;;
20480;SDS011;10399;50.754;3.366;2023-03-22T01:51:11;13.20;;;5.80;;
20480;SDS011;10399;50.754;3.366;2023-03-22T01:53:44;16.05;;;5.82;;
20480;SDS011;10399;50.754;3.366;2023-03-22T01:56:18;14.20;;;5.28;;
20480;SDS011;10399;50.754;3.366;2023-03-22T01:58:48;8.43;;;5.10;;
20480;SDS011;10399;50.754;3.366;2023-03-22T02:01:17;16.83;;;5.07;;
20480;SDS011;10399;50.754;3.366;2023-03-22T02:03:49;8.65;;;4.32;;
20480;SDS011;10399;50.754;3.366;2023-03-22T02:06:18;10.80;;;4.68;;
20480;SDS011;10399;50.754;3.366;2023-03-22T02:08:45;14.43;;;4.93;;
20480;SDS011;10399;50.754;3.366;2023-03-22T02:11:13;13.75;;;4.45;;
20480;SDS011;10399;50.754;3.366;2023-03-22T02:24:54;9.75;;;4.07;;
20480;SDS011;10399;50.754;3.366;2023-03-22T02:48:04;14.23;;;3.80;;
20480;SDS011;10399;50.754;3.366;2023-03-22T02:53:18;11.15;;;4.30;;
20480;SDS011;10399;50.754;3.366;2023-03-22T02:55:57;12.15;;;3.85;;
20480;SDS011;10399;50.754;3.366;2023-03-22T02:58:28;12.57;;;3.33;;
20480;SDS011;10399;50.754;3.366;2023-03-22T03:01:13;9.60;;;3.50;;
20480;SDS011;10399;50.754;3.366;2023-03-22T03:03:49;8.32;;;3.20;;
20480;SDS011;10399;50.754;3.366;2023-03-22T03:06:22;12.40;;;3.45;;
20480;SDS011;10399;50.754;3.366;2023-03-22T03:08:52;10.18;;;2.92;;
20480;SDS011;10399;50.754;3.366;2023-03-22T03:11:23;14.52;;;3.25;;
20480;SDS011;10399;50.754;3.366;2023-03-22T03:13:50;12.55;;;3.53;;
20480;SDS011;10399;50.754;3.366;2023-03-22T03:16:19;10.20;;;2.95;;
20480;SDS011;10399;50.754;3.366;2023-03-22T03:24:27;14.30;;;3.05;;
20480;SDS011;10399;50.754;3.366;2023-03-22T03:27:01;14.80;;;2.50;;
20480;SDS011;10399;50.754;3.366;2023-03-22T03:29:43;11.10;;;2.45;;
20480;SDS011;10399;50.754;3.366;2023-03-22T03:32:27;9.15;;;2.38;;
20480;SDS011;10399;50.754;3.366;2023-03-22T03:35:03;17.67;;;2.90;;
20480;SDS011;10399;50.754;3.366;2023-03-22T03:38:01;10.00;;;2.20;;
20480;SDS011;10399;50.754;3.366;2023-03-22T03:40:35;8.75;;;2.85;;
20480;SDS011;10399;50.754;3.366;2023-03-22T03:43:19;22.13;;;2.95;;
20480;SDS011;10399;50.754;3.366;2023-03-22T03:45:48;14.02;;;2.70;;
20480;SDS011;10399;50.754;3.366;2023-03-22T03:48:18;19.48;;;2.75;;
20480;SDS011;10399;50.754;3.366;2023-03-22T03:50:47;9.02;;;2.55;;
20480;SDS011;10399;50.754;3.366;2023-03-22T03:53:17;13.43;;;3.13;;
20480;SDS011;10399;50.754;3.366;2023-03-22T03:55:44;17.10;;;2.60;;
20480;SDS011;10399;50.754;3.366;2023-03-22T03:58:11;14.20;;;2.40;;
20480;SDS011;10399;50.754;3.366;2023-03-22T04:00:38;19.30;;;2.83;;
20480;SDS011;10399;50.754;3.366;2023-03-22T04:03:05;16.88;;;2.00;;
20480;SDS011;10399;50.754;3.366;2023-03-22T04:05:32;12.50;;;2.75;;
20480;SDS011;10399;50.754;3.366;2023-03-22T04:07:59;10.57;;;2.47;;
20480;SDS011;10399;50.754;3.366;2023-03-22T04:10:26;8.68;;;2.08;;
20480;SDS011;10399;50.754;3.366;2023-03-22T04:12:53;11.63;;;2.20;;
20480;SDS011;10399;50.754;3.366;2023-03-22T04:15:20;9.77;;;2.15;;
20480;SDS011;10399;50.754;3.366;2023-03-22T04:17:47;14.48;;;2.33;;
20480;SDS011;10399;50.754;3.366;2023-03-22T04:20:14;10.45;;;2.03;;
20480;SDS011;10399;50.754;3.366;2023-03-22T04:22:41;14.10;;;2.38;;
20480;SDS011;10399;50.754;3.366;2023-03-22T04:25:10;15.50;;;2.30;;
20480;SDS011;10399;50.754;3.366;2023-03-22T04:27:39;10.65;;;1.92;;
20480;SDS011;10399;50.754;3.366;2023-03-22T04:30:07;13.13;;;1.98;;
20480;SDS011;10399;50.754;3.366;2023-03-22T04:32:37;9.85;;;2.55;;
20480;SDS011;10399;50.754;3.366;2023-03-22T04:35:04;13.52;;;2.40;;
20480;SDS011;10399;50.754;3.366;2023-03-22T04:37:31;13.88;;;1.98;;
20480;SDS011;10399;50.754;3.366;2023-03-22T04:39:58;5.95;;;1.83;;
20480;SDS011;10399;50.754;3.366;2023-03-22T04:42:25;8.90;;;2.00;;
20480;SDS011;10399;50.754;3.366;2023-03-22T04:44:52;12.68;;;2.30;;
20480;SDS011;10399;50.754;3.366;2023-03-22T04:47:19;14.73;;;2.88;;
20480;SDS011;10399;50.754;3.366;2023-03-22T04:49:46;7.68;;;2.20;;
20480;SDS011;10399;50.754;3.366;2023-03-22T04:52:13;11.38;;;2.88;;
20480;SDS011;10399;50.754;3.366;2023-03-22T04:54:40;7.32;;;2.20;;
20480;SDS011;10399;50.754;3.366;2023-03-22T04:57:07;11.75;;;2.67;;
20480;SDS011;10399;50.754;3.366;2023-03-22T04:59:34;9.75;;;2.10;;
20480;SDS011;10399;50.754;3.366;2023-03-22T05:02:01;8.73;;;2.40;;
20480;SDS011;10399;50.754;3.366;2023-03-22T05:04:28;11.00;;;2.17;;
20480;SDS011;10399;50.754;3.366;2023-03-22T05:06:56;13.85;;;2.33;;
20480;SDS011;10399;50.754;3.366;2023-03-22T05:09:23;12.15;;;1.95;;
20480;SDS011;10399;50.754;3.366;2023-03-22T05:11:50;10.57;;;2.42;;
20480;SDS011;10399;50.754;3.366;2023-03-22T05:14:17;12.10;;;2.40;;
20480;SDS011;10399;50.754;3.366;2023-03-22T05:16:44;11.00;;;2.05;;
20480;SDS011;10399;50.754;3.366;2023-03-22T05:19:11;14.63;;;2.55;;
20480;SDS011;10399;50.754;3.366;2023-03-22T05:21:41;10.10;;;2.47;;
20480;SDS011;10399;50.754;3.366;2023-03-22T05:24:09;14.55;;;2.70;;
20480;SDS011;10399;50.754;3.366;2023-03-22T05:26:37;14.48;;;2.90;;
20480;SDS011;10399;50.754;3.366;2023-03-22T05:29:08;9.40;;;1.80;;
20480;SDS011;10399;50.754;3.366;2023-03-22T05:31:36;15.25;;;2.85;;
20480;SDS011;10399;50.754;3.366;2023-03-22T05:34:03;14.50;;;3.13;;
20480;SDS011;10399;50.754;3.366;2023-03-22T05:36:30;10.57;;;2.15;;
20480;SDS011;10399;50.754;3.366;2023-03-22T05:38:57;9.52;;;2.28;;
20480;SDS011;10399;50.754;3.366;2023-03-22T05:41:24;11.02;;;2.25;;
20480;SDS011;10399;50.754;3.366;2023-03-22T05:43:51;12.75;;;2.53;;
20480;SDS011;10399;50.754;3.366;2023-03-22T05:46:18;10.68;;;2.63;;
20480;SDS011;10399;50.754;3.366;2023-03-22T05:48:45;11.07;;;1.90;;
20480;SDS011;10399;50.754;3.366;2023-03-22T05:51:13;10.25;;;1.65;;
20480;SDS011;10399;50.754;3.366;2023-03-22T05:53:45;11.32;;;2.40;;
20480;SDS011;10399;50.754;3.366;2023-03-22T05:56:13;9.40;;;2.00;;
20480;SDS011;10399;50.754;3.366;2023-03-22T05:58:40;16.63;;;2.53;;
20480;SDS011;10399;50.754;3.366;2023-03-22T06:01:08;17.83;;;2.75;;
20480;SDS011;10399;50.754;3.366;2023-03-22T06:03:37;11.30;;;2.50;;
20480;SDS011;10399;50.754;3.366;2023-03-22T06:06:05;9.63;;;2.70;;
20480;SDS011;10399;50.754;3.366;2023-03-22T06:08:38;13.77;;;2.42;;
20480;SDS011;10399;50.754;3.366;2023-03-22T06:11:06;13.88;;;2.50;;
20480;SDS011;10399;50.754;3.366;2023-03-22T06:13:34;7.82;;;2.30;;
20480;SDS011;10399;50.754;3.366;2023-03-22T06:16:03;16.90;;;2.92;;
20480;SDS011;10399;50.754;3.366;2023-03-22T06:18:30;12.02;;;2.45;;
20480;SDS011;10399;50.754;3.366;2023-03-22T06:20:58;19.67;;;2.78;;
20480;SDS011;10399;50.754;3.366;2023-03-22T06:23:26;15.40;;;2.78;;
20480;SDS011;10399;50.754;3.366;2023-03-22T06:25:53;15.40;;;3.15;;
20480;SDS011;10399;50.754;3.366;2023-03-22T06:28:20;14.05;;;2.22;;
20480;SDS011;10399;50.754;3.366;2023-03-22T06:30:47;11.70;;;2.13;;
20480;SDS011;10399;50.754;3.366;2023-03-22T06:33:14;13.10;;;2.75;;
20480;SDS011;10399;50.754;3.366;2023-03-22T06:35:41;14.10;;;3.05;;
20480;SDS011;10399;50.754;3.366;2023-03-22T06:38:08;11.15;;;2.47;;
20480;SDS011;10399;50.754;3.366;2023-03-22T06:40:35;14.00;;;2.60;;
20480;SDS011;10399;50.754;3.366;2023-03-22T06:43:03;14.40;;;1.98;;
20480;SDS011;10399;50.754;3.366;2023-03-22T06:45:32;17.95;;;3.65;;
20480;SDS011;10399;50.754;3.366;2023-03-22T06:48:01;10.55;;;2.13;;
20480;SDS011;10399;50.754;3.366;2023-03-22T06:50:28;10.40;;;2.30;;
20480;SDS011;10399;50.754;3.366;2023-03-22T06:52:56;12.98;;;2.28;;
20480;SDS011;10399;50.754;3.366;2023-03-22T06:55:23;11.43;;;2.72;;
20480;SDS011;10399;50.754;3.366;2023-03-22T06:57:50;13.05;;;2.50;;
20480;SDS011;10399;50.754;3.366;2023-03-22T07:00:17;11.00;;;2.70;;
20480;SDS011;10399;50.754;3.366;2023-03-22T07:02:44;15.88;;;3.17;;
20480;SDS011;10399;50.754;3.366;2023-03-22T07:05:11;12.02;;;2.38;;
20480;SDS011;10399;50.754;3.366;2023-03-22T07:07:39;14.00;;;2.45;;
20480;SDS011;10399;50.754;3.366;2023-03-22T07:10:09;17.88;;;2.90;;
20480;SDS011;10399;50.754;3.366;2023-03-22T07:12:36;10.40;;;2.53;;
20480;SDS011;10399;50.754;3.366;2023-03-22T07:15:03;15.05;;;3.08;;
20480;SDS011;10399;50.754;3.366;2023-03-22T07:17:31;10.77;;;2.45;;
20480;SDS011;10399;50.754;3.366;2023-03-22T07:19:58;8.27;;;2.35;;
20480;SDS011;10399;50.754;3.366;2023-03-22T07:22:25;15.68;;;2.85;;
20480;SDS011;10399;50.754;3.366;2023-03-22T07:24:52;12.70;;;2.50;;
20480;SDS011;10399;50.754;3.366;2023-03-22T07:27:24;12.43;;;2.45;;
20480;SDS011;10399;50.754;3.366;2023-03-22T07:29:51;15.05;;;2.40;;
20480;SDS011;10399;50.754;3.366;2023-03-22T07:32:18;8.50;;;2.80;;
20480;SDS011;10399;50.754;3.366;2023-03-22T07:34:45;8.95;;;2.70;;
20480;SDS011;10399;50.754;3.366;2023-03-22T07:37:12;13.57;;;2.65;;
20480;SDS011;10399;50.754;3.366;2023-03-22T07:39:39;11.27;;;2.30;;
20480;SDS011;10399;50.754;3.366;2023-03-22T07:42:06;11.38;;;2.25;;
20480;SDS011;10399;50.754;3.366;2023-03-22T07:44:34;8.63;;;2.28;;
20480;SDS011;10399;50.754;3.366;2023-03-22T07:47:02;15.35;;;3.00;;
20480;SDS011;10399;50.754;3.366;2023-03-22T07:49:29;15.85;;;3.03;;
20480;SDS011;10399;50.754;3.366;2023-03-22T07:51:56;14.50;;;2.67;;
20480;SDS011;10399;50.754;3.366;2023-03-22T07:54:23;12.90;;;2.38;;
20480;SDS011;10399;50.754;3.366;2023-03-22T07:56:58;15.40;;;2.78;;
20480;SDS011;10399;50.754;3.366;2023-03-22T07:59:26;17.45;;;2.83;;
20480;SDS011;10399;50.754;3.366;2023-03-22T08:01:53;9.57;;;1.75;;
20480;SDS011;10399;50.754;3.366;2023-03-22T08:04:21;10.70;;;2.85;;
20480;SDS011;10399;50.754;3.366;2023-03-22T08:06:48;15.30;;;3.03;;
20480;SDS011;10399;50.754;3.366;2023-03-22T08:09:16;14.82;;;2.70;;
20480;SDS011;10399;50.754;3.366;2023-03-22T08:11:43;13.27;;;2.42;;
20480;SDS011;10399;50.754;3.366;2023-03-22T08:14:11;8.48;;;2.22;;
20480;SDS011;10399;50.754;3.366;2023-03-22T08:16:38;15.43;;;3.10;;
20480;SDS011;10399;50.754;3.366;2023-03-22T08:19:06;9.80;;;2.40;;
20480;SDS011;10399;50.754;3.366;2023-03-22T08:21:33;9.27;;;2.22;;
20480;SDS011;10399;50.754;3.366;2023-03-22T08:24:02;13.80;;;2.08;;
20480;SDS011;10399;50.754;3.366;2023-03-22T08:26:30;12.98;;;2.55;;
20480;SDS011;10399;50.754;3.366;2023-03-22T08:28:57;13.25;;;2.40;;
20480;SDS011;10399;50.754;3.366;2023-03-22T08:31:24;12.43;;;2.40;;
20480;SDS011;10399;50.754;3.366;2023-03-22T08:33:52;15.70;;;2.50;;
20480;SDS011;10399;50.754;3.366;2023-03-22T08:36:19;11.05;;;2.40;;
20480;SDS011;10399;50.754;3.366;2023-03-22T08:38:50;10.52;;;1.77;;
20480;SDS011;10399;50.754;3.366;2023-03-22T08:41:17;9.32;;;2.00;;
20480;SDS011;10399;50.754;3.366;2023-03-22T08:43:44;17.50;;;2.75;;
20480;SDS011;10399;50.754;3.366;2023-03-22T08:46:11;10.75;;;2.65;;
20480;SDS011;10399;50.754;3.366;2023-03-22T08:48:38;9.48;;;2.28;;
20480;SDS011;10399;50.754;3.366;2023-03-22T08:51:07;14.13;;;2.35;;
20480;SDS011;10399;50.754;3.366;2023-03-22T08:53:34;14.35;;;2.60;;
20480;SDS011;10399;50.754;3.366;2023-03-22T08:56:01;12.80;;;2.22;;
20480;SDS011;10399;50.754;3.366;2023-03-22T08:58:29;14.27;;;2.50;;
20480;SDS011;10399;50.754;3.366;2023-03-22T09:00:56;11.32;;;2.45;;
20480;SDS011;10399;50.754;3.366;2023-03-22T09:03:23;17.00;;;2.45;;
20480;SDS011;10399;50.754;3.366;2023-03-22T09:05:51;13.20;;;2.55;;
20480;SDS011;10399;50.754;3.366;2023-03-22T09:08:18;9.57;;;2.75;;
20480;SDS011;10399;50.754;3.366;2023-03-22T09:10:46;17.02;;;3.08;;
20480;SDS011;10399;50.754;3.366;2023-03-22T09:13:18;11.77;;;2.85;;
20480;SDS011;10399;50.754;3.366;2023-03-22T09:15:45;11.93;;;2.50;;
20480;SDS011;10399;50.754;3.366;2023-03-22T09:18:12;11.23;;;2.60;;
20480;SDS011;10399;50.754;3.366;2023-03-22T09:20:39;16.23;;;2.50;;
20480;SDS011;10399;50.754;3.366;2023-03-22T09:23:07;8.50;;;2.00;;
20480;SDS011;10399;50.754;3.366;2023-03-22T09:25:34;13.23;;;2.42;;
20480;SDS011;10399;50.754;3.366;2023-03-22T09:28:01;12.05;;;2.47;;
20480;SDS011;10399;50.754;3.366;2023-03-22T09:30:29;9.23;;;2.08;;
20480;SDS011;10399;50.754;3.366;2023-03-22T09:32:56;12.93;;;2.45;;
20480;SDS011;10399;50.754;3.366;2023-03-22T09:35:23;11.63;;;2.20;;
20480;SDS011;10399;50.754;3.366;2023-03-22T09:37:51;10.98;;;2.70;;
20480;SDS011;10399;50.754;3.366;2023-03-22T09:40:20;11.95;;;3.10;;
20480;SDS011;10399;50.754;3.366;2023-03-22T09:42:51;12.23;;;2.40;;
20480;SDS011;10399;50.754;3.366;2023-03-22T09:45:32;13.32;;;2.45;;
20480;SDS011;10399;50.754;3.366;2023-03-22T09:48:13;17.88;;;3.58;;
20480;SDS011;10399;50.754;3.366;2023-03-22T09:50:47;13.35;;;2.58;;
20480;SDS011;10399;50.754;3.366;2023-03-22T09:53:16;16.10;;;3.35;;
20480;SDS011;10399;50.754;3.366;2023-03-22T09:55:47;12.57;;;3.15;;
20480;SDS011;10399;50.754;3.366;2023-03-22T10:04:00;16.75;;;3.15;;
20480;SDS011;10399;50.754;3.366;2023-03-22T10:06:38;10.57;;;2.90;;
20480;SDS011;10399;50.754;3.366;2023-03-22T10:09:28;13.32;;;3.38;;
20480;SDS011;10399;50.754;3.366;2023-03-22T10:17:21;10.38;;;2.88;;
20480;SDS011;10399;50.754;3.366;2023-03-22T10:22:26;15.48;;;2.75;;
20480;SDS011;10399;50.754;3.366;2023-03-22T10:24:58;14.07;;;2.78;;
20480;SDS011;10399;50.754;3.366;2023-03-22T10:27:28;9.73;;;2.90;;
20480;SDS011;10399;50.754;3.366;2023-03-22T10:29:59;11.02;;;2.95;;
20480;SDS011;10399;50.754;3.366;2023-03-22T10:35:21;9.02;;;2.58;;
20480;SDS011;10399;50.754;3.366;2023-03-22T10:37:48;8.77;;;2.90;;
20480;SDS011;10399;50.754;3.366;2023-03-22T10:40:25;12.93;;;2.83;;
20480;SDS011;10399;50.754;3.366;2023-03-22T10:43:43;9.35;;;3.15;;
20480;SDS011;10399;50.754;3.366;2023-03-22T10:45:57;9.63;;;2.80;;
20480;SDS011;10399;50.754;3.366;2023-03-22T10:48:45;10.32;;;2.80;;
20480;SDS011;10399;50.754;3.366;2023-03-22T10:51:25;8.77;;;3.03;;
20480;SDS011;10399;50.754;3.366;2023-03-22T10:54:00;9.25;;;2.50;;
20480;SDS011;10399;50.754;3.366;2023-03-22T10:56:28;10.90;;;2.70;;
20480;SDS011;10399;50.754;3.366;2023-03-22T10:58:55;9.85;;;2.75;;
20480;SDS011;10399;50.754;3.366;2023-03-22T11:01:27;5.13;;;2.33;;
20480;SDS011;10399;50.754;3.366;2023-03-22T11:04:05;13.45;;;2.45;;
20480;SDS011;10399;50.754;3.366;2023-03-22T11:06:39;9.45;;;2.40;;
20480;SDS011;10399;50.754;3.366;2023-03-22T11:09:21;6.40;;;2.58;;
20480;SDS011;10399;50.754;3.366;2023-03-22T11:11:53;13.93;;;2.92;;
20480;SDS011;10399;50.754;3.366;2023-03-22T11:14:26;7.55;;;2.53;;
20480;SDS011;10399;50.754;3.366;2023-03-22T11:17:15;8.60;;;2.65;;
20480;SDS011;10399;50.754;3.366;2023-03-22T11:19:51;6.63;;;2.80;;
20480;SDS011;10399;50.754;3.366;2023-03-22T11:22:36;7.28;;;3.22;;
20480;SDS011;10399;50.754;3.366;2023-03-22T11:25:06;8.10;;;3.00;;
20480;SDS011;10399;50.754;3.366;2023-03-22T11:27:50;7.88;;;3.40;;
20480;SDS011;10399;50.754;3.366;2023-03-22T11:30:21;9.85;;;3.88;;
20480;SDS011;10399;50.754;3.366;2023-03-22T11:35:37;7.65;;;3.33;;
20480;SDS011;10399;50.754;3.366;2023-03-22T11:38:04;13.07;;;3.90;;
20480;SDS011;10399;50.754;3.366;2023-03-22T11:40:34;11.55;;;3.42;;
20480;SDS011;10399;50.754;3.366;2023-03-22T11:43:22;13.43;;;3.65;;
20480;SDS011;10399;50.754;3.366;2023-03-22T11:45:52;9.45;;;3.70;;
20480;SDS011;10399;50.754;3.366;2023-03-22T11:48:26;8.98;;;3.40;;
20480;SDS011;10399;50.754;3.366;2023-03-22T11:51:05;13.73;;;4.97;;
20480;SDS011;10399;50.754;3.366;2023-03-22T11:53:38;11.75;;;4.72;;
20480;SDS011;10399;50.754;3.366;2023-03-22T11:56:09;13.20;;;5.35;;
20480;SDS011;10399;50.754;3.366;2023-03-22T12:01:04;17.42;;;7.22;;
20480;SDS011;10399;50.754;3.366;2023-03-22T12:03:38;16.05;;;7.30;;
20480;SDS011;10399;50.754;3.366;2023-03-22T12:06:19;21.70;;;8.00;;
20480;SDS011;10399;50.754;3.366;2023-03-22T12:08:55;16.80;;;5.85;;
20480;SDS011;10399;50.754;3.366;2023-03-22T12:11:28;12.77;;;6.20;;
20480;SDS011;10399;50.754;3.366;2023-03-22T12:14:02;16.05;;;6.47;;
20480;SDS011;10399;50.754;3.366;2023-03-22T12:16:49;14.88;;;5.45;;
20480;SDS011;10399;50.754;3.366;2023-03-22T12:22:17;12.60;;;5.60;;
20480;SDS011;10399;50.754;3.366;2023-03-22T12:24:50;15.90;;;6.53;;
20480;SDS011;10399;50.754;3.366;2023-03-22T12:27:22;16.25;;;5.80;;
20480;SDS011;10399;50.754;3.366;2023-03-22T12:30:00;15.25;;;6.80;;
20480;SDS011;10399;50.754;3.366;2023-03-22T12:32:39;13.73;;;7.45;;
20480;SDS011;10399;50.754;3.366;2023-03-22T12:35:14;15.60;;;6.78;;
20480;SDS011;10399;50.754;3.366;2023-03-22T12:37:49;14.70;;;6.18;;
20480;SDS011;10399;50.754;3.366;2023-03-22T12:45:35;11.60;;;4.03;;
20480;SDS011;10399;50.754;3.366;2023-03-22T12:48:20;12.18;;;4.20;;
20480;SDS011;10399;50.754;3.366;2023-03-22T12:51:07;13.40;;;4.55;;
20480;SDS011;10399;50.754;3.366;2023-03-22T12:53:40;13.35;;;4.55;;
20480;SDS011;10399;50.754;3.366;2023-03-22T12:56:10;8.93;;;5.38;;
20480;SDS011;10399;50.754;3.366;2023-03-22T12:58:40;14.75;;;5.97;;
20480;SDS011;10399;50.754;3.366;2023-03-22T13:01:17;12.30;;;5.55;;
20480;SDS011;10399;50.754;3.366;2023-03-22T13:03:50;12.45;;;4.57;;
20480;SDS011;10399;50.754;3.366;2023-03-22T13:06:30;15.13;;;5.25;;
20480;SDS011;10399;50.754;3.366;2023-03-22T13:11:48;15.80;;;4.40;;
20480;SDS011;10399;50.754;3.366;2023-03-22T13:19:53;13.13;;;3.97;;
20480;SDS011;10399;50.754;3.366;2023-03-22T13:32:53;9.85;;;4.57;;
20480;SDS011;10399;50.754;3.366;2023-03-22T13:35:48;7.97;;;4.53;;
20480;SDS011;10399;50.754;3.366;2023-03-22T13:38:29;8.88;;;4.70;;
20480;SDS011;10399;50.754;3.366;2023-03-22T13:41:07;9.73;;;5.10;;
20480;SDS011;10399;50.754;3.366;2023-03-22T13:43:48;8.40;;;4.35;;
20480;SDS011;10399;50.754;3.366;2023-03-22T14:01:49;8.95;;;4.18;;
20480;SDS011;10399;50.754;3.366;2023-03-22T14:10:04;7.63;;;4.05;;
20480;SDS011;10399;50.754;3.366;2023-03-22T14:12:47;11.05;;;4.10;;
20480;SDS011;10399;50.754;3.366;2023-03-22T14:15:21;11.30;;;4.18;;
20480;SDS011;10399;50.754;3.366;2023-03-22T14:18:01;14.63;;;4.28;;
20480;SDS011;10399;50.754;3.366;2023-03-22T14:20:41;10.30;;;4.57;;
20480;SDS011;10399;50.754;3.366;2023-03-22T14:23:43;11.70;;;4.80;;
20480;SDS011;10399;50.754;3.366;2023-03-22T14:28:39;10.27;;;4.60;;
20480;SDS011;10399;50.754;3.366;2023-03-22T14:34:07;12.50;;;4.70;;
20480;SDS011;10399;50.754;3.366;2023-03-22T14:36:38;13.25;;;4.07;;
20480;SDS011;10399;50.754;3.366;2023-03-22T14:39:11;13.20;;;4.32;;
20480;SDS011;10399;50.754;3.366;2023-03-22T14:44:30;10.07;;;4.45;;
20480;SDS011;10399;50.754;3.366;2023-03-22T14:47:25;10.60;;;4.20;;
20480;SDS011;10399;50.754;3.366;2023-03-22T14:49:55;14.75;;;5.65;;
20480;SDS011;10399;50.754;3.366;2023-03-22T14:52:22;12.43;;;4.95;;
20480;SDS011;10399;50.754;3.366;2023-03-22T14:54:53;12.75;;;4.43;;
20480;SDS011;10399;50.754;3.366;2023-03-22T14:57:28;14.75;;;4.63;;
20480;SDS011;10399;50.754;3.366;2023-03-22T14:59:56;10.38;;;4.40;;
20480;SDS011;10399;50.754;3.366;2023-03-22T15:02:33;14.23;;;4.30;;
20480;SDS011;10399;50.754;3.366;2023-03-22T15:05:04;15.48;;;4.55;;
20480;SDS011;10399;50.754;3.366;2023-03-22T15:07:42;13.45;;;4.50;;
20480;SDS011;10399;50.754;3.366;2023-03-22T15:10:18;17.60;;;4.95;;
20480;SDS011;10399;50.754;3.366;2023-03-22T15:12:50;18.75;;;5.18;;
20480;SDS011;10399;50.754;3.366;2023-03-22T15:15:18;14.77;;;4.68;;
20480;SDS011;10399;50.754;3.366;2023-03-22T15:17:46;9.73;;;4.38;;
20480;SDS011;10399;50.754;3.366;2023-03-22T15:20:22;11.52;;;3.80;;
20480;SDS011;10399;50.754;3.366;2023-03-22T15:22:51;18.92;;;4.65;;
20480;SDS011;10399;50.754;3.366;2023-03-22T15:25:29;9.15;;;3.95;;
20480;SDS011;10399;50.754;3.366;2023-03-22T15:27:58;10.00;;;4.53;;
20480;SDS011;10399;50.754;3.366;2023-03-22T15:30:25;9.63;;;4.07;;
20480;SDS011;10399;50.754;3.366;2023-03-22T15:32:53;12.05;;;4.53;;
20480;SDS011;10399;50.754;3.366;2023-03-22T15:35:26;10.00;;;4.80;;
20480;SDS011;10399;50.754;3.366;2023-03-22T15:37:53;14.90;;;4.55;;
20480;SDS011;10399;50.754;3.366;2023-03-22T15:40:33;12.15;;;4.30;;
20480;SDS011;10399;50.754;3.366;2023-03-22T15:43:05;13.95;;;4.65;;
20480;SDS011;10399;50.754;3.366;2023-03-22T15:45:39;12.35;;;5.22;;
20480;SDS011;10399;50.754;3.366;2023-03-22T15:50:50;16.73;;;6.50;;
20480;SDS011;10399;50.754;3.366;2023-03-22T15:53:29;13.63;;;5.25;;
20480;SDS011;10399;50.754;3.366;2023-03-22T15:55:58;13.20;;;5.15;;
20480;SDS011;10399;50.754;3.366;2023-03-22T15:58:26;11.90;;;5.65;;
20480;SDS011;10399;50.754;3.366;2023-03-22T16:00:54;16.50;;;5.15;;
20480;SDS011;10399;50.754;3.366;2023-03-22T16:03:43;9.90;;;5.35;;
20480;SDS011;10399;50.754;3.366;2023-03-22T16:06:12;13.88;;;5.10;;
20480;SDS011;10399;50.754;3.366;2023-03-22T16:08:37;8.43;;;4.75;;
20480;SDS011;10399;50.754;3.366;2023-03-22T16:11:04;12.23;;;4.88;;
20480;SDS011;10399;50.754;3.366;2023-03-22T16:13:30;18.52;;;7.53;;
20480;SDS011;10399;50.754;3.366;2023-03-22T16:15:59;17.20;;;6.93;;
20480;SDS011;10399;50.754;3.366;2023-03-22T16:18:25;13.43;;;5.35;;
20480;SDS011;10399;50.754;3.366;2023-03-22T16:20:51;13.10;;;4.63;;
20480;SDS011;10399;50.754;3.366;2023-03-22T16:23:20;10.40;;;4.95;;
20480;SDS011;10399;50.754;3.366;2023-03-22T16:25:48;10.35;;;4.25;;
20480;SDS011;10399;50.754;3.366;2023-03-22T16:28:14;14.32;;;6.07;;
20480;SDS011;10399;50.754;3.366;2023-03-22T16:30:40;17.25;;;5.50;;
20480;SDS011;10399;50.754;3.366;2023-03-22T16:33:14;19.30;;;5.40;;
20480;SDS011;10399;50.754;3.366;2023-03-22T16:35:42;13.45;;;5.65;;
20480;SDS011;10399;50.754;3.366;2023-03-22T16:38:12;12.93;;;5.13;;
20480;SDS011;10399;50.754;3.366;2023-03-22T16:40:43;12.05;;;4.85;;
20480;SDS011;10399;50.754;3.366;2023-03-22T16:43:11;10.10;;;3.97;;
20480;SDS011;10399;50.754;3.366;2023-03-22T16:45:38;11.25;;;4.47;;
20480;SDS011;10399;50.754;3.366;2023-03-22T16:48:04;9.30;;;3.47;;
20480;SDS011;10399;50.754;3.366;2023-03-22T16:50:33;10.48;;;3.97;;
20480;SDS011;10399;50.754;3.366;2023-03-22T16:53:00;10.27;;;3.83;;
20480;SDS011;10399;50.754;3.366;2023-03-22T16:55:30;11.93;;;3.47;;
20480;SDS011;10399;50.754;3.366;2023-03-22T16:57:58;8.00;;;3.65;;
20480;SDS011;10399;50.754;3.366;2023-03-22T17:00:25;11.73;;;3.72;;